createdAt,value
2018-09-10T00:00:00.059Z,807.90
2018-09-10T00:01:01.304Z,807.60
2018-09-10T00:01:59.854Z,823.10
2018-09-10T00:02:59.912Z,823.70
2018-09-10T00:03:59.908Z,801.50
2018-09-10T00:04:59.973Z,816.50
2018-09-10T00:06:00.045Z,821.40
2018-09-10T00:07:00.131Z,805.50
2018-09-10T00:08:00.395Z,807.00
2018-09-10T00:09:00.141Z,805.00
2018-09-10T00:10:00.200Z,813.70
2018-09-10T00:11:33.696Z,818.90
2018-09-10T00:12:00.269Z,830.40
2018-09-10T00:13:00.300Z,823.00
2018-09-10T00:14:00.670Z,821.00
2018-09-10T00:15:00.697Z,809.40
2018-09-10T00:16:00.473Z,815.90
2018-09-10T00:17:01.095Z,823.50
2018-09-10T00:18:01.137Z,815.60
2018-09-10T00:19:00.567Z,801.20
2018-09-10T00:20:01.524Z,842.80
2018-09-10T00:21:00.944Z,812.30
2018-09-10T00:22:00.695Z,834.70
2018-09-10T00:23:00.771Z,970.20
2018-09-10T00:24:01.348Z,995.10
2018-09-10T00:25:01.382Z,952.80
2018-09-10T00:26:00.871Z,840.20
2018-09-10T00:27:01.723Z,935.90
2018-09-10T00:28:00.938Z,844.70
2018-09-10T00:29:01.001Z,850.70
2018-09-10T00:30:01.040Z,843.10
2018-09-10T00:31:35.047Z,841.00
2018-09-10T00:32:01.666Z,839.50
2018-09-10T00:33:01.453Z,834.90
2018-09-10T00:34:01.201Z,847.40
2018-09-10T00:35:01.773Z,854.10
2018-09-10T00:36:01.303Z,855.60
2018-09-10T00:37:01.348Z,909.30
2018-09-10T00:38:01.909Z,846.70
2018-09-10T00:39:02.950Z,845.30
2018-09-10T00:40:01.731Z,884.80
2018-09-10T00:41:02.064Z,877.70
2018-09-10T00:42:02.092Z,901.60
2018-09-10T00:43:01.628Z,875.20
2018-09-10T00:44:01.677Z,895.00
2018-09-10T00:45:01.678Z,895.40
2018-09-10T00:46:02.011Z,935.20
2018-09-10T00:47:01.776Z,888.90
2018-09-10T00:48:02.377Z,874.80
2018-09-10T00:49:01.849Z,887.20
2018-09-10T00:50:35.111Z,888.60
2018-09-10T00:51:02.477Z,887.70
2018-09-10T00:52:01.981Z,902.20
2018-09-10T00:53:02.049Z,884.90
2018-09-10T00:54:02.057Z,915.50
2018-09-10T00:55:02.616Z,955.80
2018-09-10T00:56:02.455Z,902.50
2018-09-10T00:57:02.175Z,897.30
2018-09-10T00:58:02.209Z,1007.80
2018-09-10T00:59:02.258Z,885.20
2018-09-10T01:00:02.311Z,897.60
2018-09-10T01:01:03.555Z,887.90
2018-09-10T01:02:03.273Z,876.10
2018-09-10T01:03:02.420Z,866.30
2018-09-10T01:04:02.549Z,928.20
2018-09-10T01:05:02.566Z,874.70
2018-09-10T01:06:02.575Z,886.40
2018-09-10T01:07:02.612Z,882.20
2018-09-10T01:08:02.640Z,875.00
2018-09-10T01:09:02.704Z,882.80
2018-09-10T01:10:02.752Z,880.70
2018-09-10T01:11:02.824Z,911.50
2018-09-10T01:12:04.636Z,882.80
2018-09-10T01:13:02.867Z,875.80
2018-09-10T01:14:02.906Z,875.30
2018-09-10T01:15:02.927Z,865.50
2018-09-10T01:16:03.045Z,859.50
2018-09-10T01:17:03.056Z,870.80
2018-09-10T01:18:03.323Z,865.30
2018-09-10T01:19:04.732Z,862.50
2018-09-10T01:20:03.173Z,850.60
2018-09-10T01:21:03.204Z,857.60
2018-09-10T01:22:03.252Z,881.70
2018-09-10T01:23:03.270Z,879.80
2018-09-10T01:24:03.324Z,851.50
2018-09-10T01:25:03.727Z,866.60
2018-09-10T01:26:03.472Z,880.00
2018-09-10T01:27:03.437Z,871.30
2018-09-10T01:28:03.512Z,871.30
2018-09-10T01:29:03.549Z,872.10
2018-09-10T01:30:03.661Z,859.00
2018-09-10T01:31:03.613Z,868.80
2018-09-10T01:32:03.670Z,871.20
2018-09-10T01:33:03.710Z,876.20
2018-09-10T01:34:03.738Z,858.90
2018-09-10T01:35:03.795Z,868.50
2018-09-10T01:36:03.849Z,874.10
2018-09-10T01:37:03.967Z,852.10
2018-09-10T01:38:03.910Z,858.30
2018-09-10T01:39:03.981Z,862.20
2018-09-10T01:40:04.018Z,846.50
2018-09-10T01:41:04.305Z,849.40
2018-09-10T01:42:04.084Z,840.90
2018-09-10T01:43:04.142Z,852.20
2018-09-10T01:44:04.198Z,838.70
2018-09-10T01:45:04.210Z,832.40
2018-09-10T01:46:04.234Z,834.40
2018-09-10T01:47:04.287Z,833.10
2018-09-10T01:48:04.364Z,860.80
2018-09-10T01:49:04.405Z,837.60
2018-09-10T01:50:04.450Z,821.60
2018-09-10T01:51:04.755Z,828.10
2018-09-10T01:52:04.524Z,831.20
2018-09-10T01:53:04.558Z,812.60
2018-09-10T01:54:04.644Z,823.60
2018-09-10T01:55:04.644Z,830.20
2018-09-10T01:56:04.781Z,806.20
2018-09-10T01:57:04.770Z,851.20
2018-09-10T01:58:04.777Z,833.40
2018-09-10T01:59:04.857Z,842.00
2018-09-10T02:00:04.872Z,824.20
2018-09-10T02:01:05.157Z,801.80
2018-09-10T02:02:04.947Z,821.00
2018-09-10T02:03:04.987Z,831.70
2018-09-10T02:04:05.090Z,819.90
2018-09-10T02:05:05.102Z,806.70
2018-09-10T02:06:05.147Z,836.10
2018-09-10T02:07:05.163Z,820.60
2018-09-10T02:08:05.193Z,800.50
2018-09-10T02:09:05.231Z,812.70
2018-09-10T02:10:05.268Z,816.10
2018-09-10T02:11:05.638Z,816.10
2018-09-10T02:12:05.411Z,810.80
2018-09-10T02:13:05.395Z,810.50
2018-09-10T02:14:05.483Z,818.10
2018-09-10T02:15:05.492Z,830.70
2018-09-10T02:16:05.544Z,824.70
2018-09-10T02:17:05.591Z,823.00
2018-09-10T02:18:05.626Z,818.30
2018-09-10T02:19:05.712Z,832.40
2018-09-10T02:20:05.753Z,827.40
2018-09-10T02:21:05.800Z,824.20
2018-09-10T02:22:05.852Z,826.60
2018-09-10T02:23:05.895Z,824.20
2018-09-10T02:24:05.866Z,810.70
2018-09-10T02:25:05.964Z,826.30
2018-09-10T02:26:05.950Z,826.90
2018-09-10T02:27:06.049Z,817.90
2018-09-10T02:28:06.071Z,806.00
2018-09-10T02:29:06.181Z,809.90
2018-09-10T02:30:06.434Z,814.80
2018-09-10T02:31:06.160Z,825.20
2018-09-10T02:32:06.229Z,814.10
2018-09-10T02:33:06.257Z,816.50
2018-09-10T02:34:06.283Z,816.10
2018-09-10T02:35:06.353Z,811.40
2018-09-10T02:36:06.405Z,823.20
2018-09-10T02:37:06.431Z,831.00
2018-09-10T02:38:06.475Z,825.40
2018-09-10T02:39:06.526Z,824.60
2018-09-10T02:40:06.809Z,819.50
2018-09-10T02:41:06.588Z,828.60
2018-09-10T02:42:07.843Z,833.20
2018-09-10T02:43:06.672Z,826.50
2018-09-10T02:44:06.768Z,821.80
2018-09-10T02:45:06.757Z,822.70
2018-09-10T02:46:06.797Z,809.50
2018-09-10T02:47:06.856Z,822.20
2018-09-10T02:48:06.887Z,819.70
2018-09-10T02:49:06.930Z,844.10
2018-09-10T02:50:07.231Z,816.80
2018-09-10T02:51:07.008Z,831.90
2018-09-10T02:52:07.058Z,844.60
2018-09-10T02:53:07.127Z,831.30
2018-09-10T02:54:07.154Z,845.60
2018-09-10T02:55:07.211Z,826.90
2018-09-10T02:56:07.217Z,911.70
2018-09-10T02:57:07.279Z,834.70
2018-09-10T02:58:07.298Z,861.60
2018-09-10T02:59:07.369Z,844.30
2018-09-10T03:00:07.647Z,953.40
2018-09-10T03:01:07.453Z,866.60
2018-09-10T03:02:07.509Z,876.10
2018-09-10T03:03:07.594Z,863.10
2018-09-10T03:04:07.587Z,854.60
2018-09-10T03:05:07.594Z,848.40
2018-09-10T03:06:07.666Z,851.80
2018-09-10T03:07:07.688Z,876.20
2018-09-10T03:08:07.765Z,845.80
2018-09-10T03:09:07.770Z,868.50
2018-09-10T03:10:07.812Z,838.80
2018-09-10T03:11:08.151Z,850.40
2018-09-10T03:12:07.927Z,896.50
2018-09-10T03:13:07.958Z,853.30
2018-09-10T03:14:07.987Z,855.50
2018-09-10T03:15:08.025Z,843.50
2018-09-10T03:16:08.089Z,836.60
2018-09-10T03:17:08.122Z,835.60
2018-09-10T03:18:08.463Z,846.80
2018-09-10T03:19:08.233Z,839.10
2018-09-10T03:20:08.259Z,795.80
2018-09-10T03:21:08.292Z,834.00
2018-09-10T03:22:08.338Z,848.60
2018-09-10T03:23:08.358Z,869.00
2018-09-10T03:24:08.474Z,815.90
2018-09-10T03:25:08.455Z,862.40
2018-09-10T03:26:08.507Z,864.70
2018-09-10T03:27:08.554Z,853.60
2018-09-10T03:28:08.855Z,850.40
2018-09-10T03:29:08.684Z,850.90
2018-09-10T03:30:08.682Z,852.90
2018-09-10T03:31:08.727Z,844.00
2018-09-10T03:32:08.741Z,854.20
2018-09-10T03:33:08.818Z,854.10
2018-09-10T03:34:08.817Z,858.40
2018-09-10T03:35:08.901Z,848.10
2018-09-10T03:36:08.965Z,878.40
2018-09-10T03:37:08.984Z,879.90
2018-09-10T03:38:09.006Z,847.80
2018-09-10T03:39:09.050Z,859.30
2018-09-10T03:40:09.353Z,837.90
2018-09-10T03:41:09.154Z,840.30
2018-09-10T03:42:09.225Z,848.40
2018-09-10T03:43:09.233Z,841.70
2018-09-10T03:44:09.268Z,835.10
2018-09-10T03:45:09.294Z,875.40
2018-09-10T03:46:09.393Z,809.30
2018-09-10T03:47:09.396Z,811.50
2018-09-10T03:48:09.440Z,819.00
2018-09-10T03:49:09.487Z,804.20
2018-09-10T03:50:09.534Z,794.20
2018-09-10T03:51:09.551Z,795.00
2018-09-10T03:52:09.849Z,804.20
2018-09-10T03:53:09.620Z,806.60
2018-09-10T03:54:09.703Z,797.80
2018-09-10T03:55:09.717Z,803.00
2018-09-10T03:56:09.784Z,792.60
2018-09-10T03:57:09.804Z,796.90
2018-09-10T03:58:09.849Z,1013.20
2018-09-10T03:59:09.908Z,788.70
2018-09-10T04:00:09.928Z,795.50
2018-09-10T04:01:09.986Z,788.70
2018-09-10T04:02:10.020Z,781.50
2018-09-10T04:03:10.394Z,785.60
2018-09-10T04:04:10.095Z,765.60
2018-09-10T04:05:10.155Z,766.40
2018-09-10T04:06:10.166Z,765.60
2018-09-10T04:07:10.234Z,766.30
2018-09-10T04:08:10.252Z,772.30
2018-09-10T04:09:10.306Z,783.60
2018-09-10T04:10:10.346Z,791.90
2018-09-10T04:11:10.397Z,797.90
2018-09-10T04:12:10.434Z,802.60
2018-09-10T04:13:11.030Z,788.20
2018-09-10T04:14:10.515Z,783.10
2018-09-10T04:15:10.560Z,768.20
2018-09-10T04:16:10.590Z,777.10
2018-09-10T04:17:10.702Z,772.10
2018-09-10T04:18:10.695Z,769.50
2018-09-10T04:19:10.731Z,764.70
2018-09-10T04:20:11.321Z,752.10
2018-09-10T04:21:10.799Z,781.30
2018-09-10T04:22:10.911Z,757.80
2018-09-10T04:23:10.917Z,759.10
2018-09-10T04:24:10.935Z,767.30
2018-09-10T04:25:10.962Z,778.40
2018-09-10T04:26:11.001Z,787.20
2018-09-10T04:27:11.060Z,794.30
2018-09-10T04:28:11.097Z,816.00
2018-09-10T04:29:11.145Z,799.40
2018-09-10T04:30:11.420Z,834.90
2018-09-10T04:31:11.216Z,801.70
2018-09-10T04:32:11.279Z,834.20
2018-09-10T04:33:11.370Z,773.30
2018-09-10T04:34:11.362Z,765.10
2018-09-10T04:35:11.635Z,805.50
2018-09-10T04:36:11.513Z,801.40
2018-09-10T04:37:11.484Z,811.00
2018-09-10T04:38:11.571Z,799.80
2018-09-10T04:39:11.561Z,832.20
2018-09-10T04:40:11.604Z,829.80
2018-09-10T04:41:11.649Z,800.30
2018-09-10T04:42:12.034Z,785.40
2018-09-10T04:43:11.717Z,795.80
2018-09-10T04:44:11.749Z,814.30
2018-09-10T04:45:11.804Z,804.00
2018-09-10T04:46:11.825Z,766.90
2018-09-10T04:47:12.129Z,784.20
2018-09-10T04:48:11.937Z,775.80
2018-09-10T04:49:11.986Z,755.70
2018-09-10T04:50:12.024Z,735.60
2018-09-10T04:51:12.035Z,729.10
2018-09-10T04:52:12.390Z,728.80
2018-09-10T04:53:12.126Z,725.10
2018-09-10T04:54:12.168Z,726.30
2018-09-10T04:55:12.229Z,692.60
2018-09-10T04:56:12.266Z,715.50
2018-09-10T04:57:12.314Z,709.60
2018-09-10T04:58:12.491Z,711.20
2018-09-10T04:59:12.380Z,704.60
2018-09-10T05:00:12.469Z,716.80
2018-09-10T05:01:12.483Z,702.50
2018-09-10T05:02:12.498Z,674.40
2018-09-10T05:03:12.855Z,692.70
2018-09-10T05:04:12.601Z,699.10
2018-09-10T05:05:12.629Z,711.70
2018-09-10T05:06:12.664Z,704.50
2018-09-10T05:07:12.710Z,670.20
2018-09-10T05:08:12.773Z,702.40
2018-09-10T05:09:12.805Z,705.20
2018-09-10T05:10:13.130Z,700.20
2018-09-10T05:11:12.901Z,700.30
2018-09-10T05:12:12.921Z,698.80
2018-09-10T05:13:12.974Z,703.70
2018-09-10T05:14:13.019Z,721.90
2018-09-10T05:15:13.069Z,696.50
2018-09-10T05:16:13.331Z,705.50
2018-09-10T05:17:13.153Z,719.50
2018-09-10T05:18:13.168Z,725.10
2018-09-10T05:19:13.207Z,712.60
2018-09-10T05:20:13.257Z,691.60
2018-09-10T05:21:13.305Z,696.70
2018-09-10T05:22:13.350Z,671.40
2018-09-10T05:23:13.384Z,709.00
2018-09-10T05:24:13.403Z,699.10
2018-09-10T05:25:13.477Z,704.40
2018-09-10T05:26:13.524Z,666.90
2018-09-10T05:27:13.840Z,721.40
2018-09-10T05:28:13.699Z,712.30
2018-09-10T05:29:13.623Z,698.20
2018-09-10T05:30:13.748Z,690.00
2018-09-10T05:31:13.727Z,692.70
2018-09-10T05:32:13.765Z,705.00
2018-09-10T05:33:14.058Z,707.80
2018-09-10T05:34:13.863Z,687.70
2018-09-10T05:35:13.884Z,710.80
2018-09-10T05:36:13.943Z,716.40
2018-09-10T05:37:13.949Z,723.30
2018-09-10T05:38:14.324Z,723.00
2018-09-10T05:39:14.117Z,718.50
2018-09-10T05:40:14.106Z,699.60
2018-09-10T05:41:14.138Z,725.80
2018-09-10T05:42:14.193Z,678.70
2018-09-10T05:43:14.204Z,698.00
2018-09-10T05:44:14.547Z,861.80
2018-09-10T05:45:14.293Z,728.20
2018-09-10T05:46:14.346Z,735.80
2018-09-10T05:47:14.400Z,729.00
2018-09-10T05:48:14.426Z,711.70
2018-09-10T05:49:14.486Z,721.60
2018-09-10T05:50:14.774Z,727.80
2018-09-10T05:51:14.700Z,720.00
2018-09-10T05:52:14.639Z,721.60
2018-09-10T05:53:14.704Z,724.90
2018-09-10T05:54:14.662Z,730.50
2018-09-10T05:55:14.725Z,726.90
2018-09-10T05:56:14.769Z,730.70
2018-09-10T05:57:14.798Z,728.10
2018-09-10T05:58:14.887Z,714.00
2018-09-10T05:59:14.904Z,725.80
2018-09-10T06:00:14.974Z,736.80
2018-09-10T06:01:15.283Z,723.10
2018-09-10T06:02:15.031Z,743.10
2018-09-10T06:03:15.048Z,726.20
2018-09-10T06:04:15.081Z,740.20
2018-09-10T06:05:15.144Z,739.70
2018-09-10T06:06:15.191Z,739.00
2018-09-10T06:07:15.532Z,743.00
2018-09-10T06:08:15.267Z,722.00
2018-09-10T06:09:15.314Z,722.80
2018-09-10T06:10:15.334Z,711.70
2018-09-10T06:11:15.374Z,711.60
2018-09-10T06:12:15.436Z,688.10
2018-09-10T06:13:15.712Z,704.30
2018-09-10T06:14:15.519Z,728.70
2018-09-10T06:15:15.592Z,692.50
2018-09-10T06:16:15.588Z,705.60
2018-09-10T06:17:15.622Z,723.30
2018-09-10T06:18:15.686Z,729.20
2018-09-10T06:19:15.740Z,895.80
2018-09-10T06:20:15.785Z,760.90
2018-09-10T06:21:15.794Z,798.50
2018-09-10T06:22:15.824Z,693.70
2018-09-10T06:23:16.158Z,731.40
2018-09-10T06:24:15.929Z,688.10
2018-09-10T06:25:15.962Z,727.20
2018-09-10T06:26:16.005Z,713.10
2018-09-10T06:27:16.088Z,723.30
2018-09-10T06:28:16.096Z,717.10
2018-09-10T06:29:16.380Z,718.70
2018-09-10T06:30:16.222Z,730.50
2018-09-10T06:31:16.205Z,737.10
2018-09-10T06:32:16.246Z,731.50
2018-09-10T06:33:16.300Z,731.30
2018-09-10T06:34:16.418Z,757.20
2018-09-10T06:35:16.370Z,756.20
2018-09-10T06:36:16.415Z,755.30
2018-09-10T06:37:16.587Z,773.80
2018-09-10T06:38:16.504Z,745.90
2018-09-10T06:39:16.547Z,749.70
2018-09-10T06:40:16.866Z,737.80
2018-09-10T06:41:16.616Z,723.40
2018-09-10T06:42:16.664Z,745.90
2018-09-10T06:43:16.694Z,765.80
2018-09-10T06:44:16.750Z,778.70
2018-09-10T06:45:16.783Z,788.80
2018-09-10T06:46:16.829Z,717.10
2018-09-10T06:47:16.877Z,788.00
2018-09-10T06:48:16.912Z,769.60
2018-09-10T06:49:16.933Z,774.60
2018-09-10T06:50:17.003Z,791.40
2018-09-10T06:51:17.120Z,795.20
2018-09-10T06:52:17.072Z,795.40
2018-09-10T06:53:17.117Z,800.70
2018-09-10T06:54:17.141Z,803.30
2018-09-10T06:55:17.210Z,804.90
2018-09-10T06:56:17.244Z,818.40
2018-09-10T06:57:17.427Z,792.60
2018-09-10T06:58:17.319Z,799.30
2018-09-10T06:59:17.356Z,802.00
2018-09-10T07:00:17.395Z,783.20
2018-09-10T07:01:17.480Z,803.90
2018-09-10T07:02:17.630Z,786.40
2018-09-10T07:03:17.567Z,861.60
2018-09-10T07:04:17.568Z,785.60
2018-09-10T07:05:17.618Z,859.70
2018-09-10T07:06:17.666Z,792.10
2018-09-10T07:07:17.706Z,762.90
2018-09-10T07:08:17.866Z,936.70
2018-09-10T07:09:17.771Z,765.40
2018-09-10T07:10:17.788Z,776.10
2018-09-10T07:11:17.839Z,804.00
2018-09-10T07:12:17.883Z,796.50
2018-09-10T07:13:17.923Z,771.70
2018-09-10T07:14:18.108Z,796.80
2018-09-10T07:15:18.011Z,774.50
2018-09-10T07:16:18.054Z,774.10
2018-09-10T07:17:18.099Z,793.60
2018-09-10T07:18:18.156Z,767.30
2018-09-10T07:19:18.172Z,776.40
2018-09-10T07:20:18.204Z,767.20
2018-09-10T07:21:18.404Z,774.10
2018-09-10T07:22:18.303Z,751.20
2018-09-10T07:23:18.335Z,752.50
2018-09-10T07:24:18.384Z,764.60
2018-09-10T07:25:18.445Z,767.90
2018-09-10T07:26:18.464Z,745.10
2018-09-10T07:27:18.539Z,758.60
2018-09-10T07:28:18.544Z,751.40
2018-09-10T07:29:18.589Z,756.00
2018-09-10T07:30:18.610Z,736.90
2018-09-10T07:31:18.773Z,779.90
2018-09-10T07:32:18.745Z,748.80
2018-09-10T07:33:18.762Z,744.50
2018-09-10T07:34:18.790Z,751.90
2018-09-10T07:35:18.820Z,753.60
2018-09-10T07:36:19.021Z,745.80
2018-09-10T07:37:18.910Z,739.80
2018-09-10T07:38:18.948Z,741.50
2018-09-10T07:39:18.995Z,767.60
2018-09-10T07:40:19.043Z,747.90
2018-09-10T07:41:19.052Z,752.10
2018-09-10T07:42:19.261Z,721.70
2018-09-10T07:43:19.184Z,734.70
2018-09-10T07:44:19.319Z,742.90
2018-09-10T07:45:19.262Z,728.20
2018-09-10T07:46:19.259Z,744.00
2018-09-10T07:47:19.466Z,762.30
2018-09-10T07:48:19.363Z,751.30
2018-09-10T07:49:19.429Z,740.20
2018-09-10T07:50:19.460Z,725.80
2018-09-10T07:51:19.486Z,728.50
2018-09-10T07:52:19.556Z,763.20
2018-09-10T07:53:19.708Z,751.50
2018-09-10T07:54:19.640Z,751.30
2018-09-10T07:55:19.639Z,753.60
2018-09-10T07:56:19.694Z,754.10
2018-09-10T07:57:19.735Z,745.90
2018-09-10T07:58:19.773Z,750.50
2018-09-10T07:59:19.943Z,751.20
2018-09-10T08:00:19.851Z,744.70
2018-09-10T08:01:19.892Z,749.00
2018-09-10T08:02:19.925Z,755.70
2018-09-10T08:03:19.995Z,800.20
2018-09-10T08:04:20.012Z,744.10
2018-09-10T08:05:20.061Z,743.30
2018-09-10T08:06:20.205Z,722.90
2018-09-10T08:07:20.138Z,729.50
2018-09-10T08:08:20.164Z,725.80
2018-09-10T08:09:20.288Z,736.10
2018-09-10T08:10:20.264Z,751.00
2018-09-10T08:11:20.436Z,735.80
2018-09-10T08:12:20.339Z,727.20
2018-09-10T08:13:20.402Z,722.80
2018-09-10T08:14:20.430Z,722.00
2018-09-10T08:15:20.459Z,723.20
2018-09-10T08:16:20.501Z,745.30
2018-09-10T08:17:20.677Z,742.40
2018-09-10T08:18:20.576Z,729.10
2018-09-10T08:19:20.612Z,744.20
2018-09-10T08:20:20.669Z,750.60
2018-09-10T08:21:20.719Z,743.40
2018-09-10T08:22:20.745Z,791.30
2018-09-10T08:23:20.800Z,766.80
2018-09-10T08:24:20.866Z,743.80
2018-09-10T08:25:20.860Z,731.10
2018-09-10T08:26:20.924Z,795.90
2018-09-10T08:27:21.051Z,755.10
2018-09-10T08:28:20.992Z,748.70
2018-09-10T08:29:21.032Z,751.30
2018-09-10T08:30:21.105Z,738.10
2018-09-10T08:31:21.130Z,735.20
2018-09-10T08:32:21.173Z,754.30
2018-09-10T08:33:21.181Z,735.40
2018-09-10T08:34:21.251Z,728.90
2018-09-10T08:35:21.286Z,718.60
2018-09-10T08:36:21.318Z,726.20
2018-09-10T08:37:21.470Z,729.10
2018-09-10T08:38:21.544Z,699.30
2018-09-10T08:39:21.446Z,706.40
2018-09-10T08:40:21.475Z,706.10
2018-09-10T08:41:21.536Z,705.00
2018-09-10T08:42:21.562Z,689.00
2018-09-10T08:43:21.613Z,705.80
2018-09-10T08:44:21.693Z,693.00
2018-09-10T08:45:21.741Z,707.50
2018-09-10T08:46:21.719Z,687.70
2018-09-10T08:47:21.788Z,709.90
2018-09-10T08:48:21.987Z,726.20
2018-09-10T08:49:21.877Z,721.10
2018-09-10T08:50:21.902Z,843.50
2018-09-10T08:51:21.940Z,693.80
2018-09-10T08:52:22.002Z,720.10
2018-09-10T08:53:22.032Z,814.00
2018-09-10T08:54:22.122Z,713.20
2018-09-10T08:55:22.192Z,716.70
2018-09-10T08:56:22.197Z,759.10
2018-09-10T08:57:22.190Z,707.00
2018-09-10T08:58:22.320Z,698.30
2018-09-10T08:59:22.425Z,968.20
2018-09-10T09:00:22.418Z,710.00
2018-09-10T09:01:22.368Z,730.50
2018-09-10T09:02:22.407Z,728.10
2018-09-10T09:03:22.428Z,714.20
2018-09-10T09:04:22.480Z,701.10
2018-09-10T09:05:22.604Z,713.40
2018-09-10T09:06:22.586Z,688.20
2018-09-10T09:07:22.593Z,700.50
2018-09-10T09:08:22.636Z,691.10
2018-09-10T09:09:22.710Z,709.80
2018-09-10T09:10:22.730Z,679.70
2018-09-10T09:11:22.904Z,682.50
2018-09-10T09:12:22.793Z,708.70
2018-09-10T09:13:22.853Z,680.80
2018-09-10T09:14:22.896Z,719.50
2018-09-10T09:15:22.925Z,703.60
2018-09-10T09:16:23.083Z,697.40
2018-09-10T09:17:23.019Z,677.30
2018-09-10T09:18:23.039Z,702.70
2018-09-10T09:19:23.087Z,695.40
2018-09-10T09:20:23.184Z,693.80
2018-09-10T09:21:23.207Z,698.00
2018-09-10T09:22:23.257Z,692.40
2018-09-10T09:23:23.463Z,694.70
2018-09-10T09:24:23.300Z,687.40
2018-09-10T09:25:23.337Z,694.00
2018-09-10T09:26:23.431Z,703.30
2018-09-10T09:27:23.422Z,702.60
2018-09-10T09:28:23.466Z,727.50
2018-09-10T09:29:23.634Z,712.60
2018-09-10T09:30:23.599Z,735.40
2018-09-10T09:31:23.608Z,717.80
2018-09-10T09:32:23.652Z,724.80
2018-09-10T09:33:23.673Z,708.40
2018-09-10T09:34:23.726Z,711.10
2018-09-10T09:35:23.909Z,710.40
2018-09-10T09:36:23.891Z,691.60
2018-09-10T09:37:23.846Z,705.90
2018-09-10T09:38:23.892Z,691.90
2018-09-10T09:39:23.930Z,691.50
2018-09-10T09:40:23.979Z,692.80
2018-09-10T09:41:24.210Z,677.80
2018-09-10T09:42:24.032Z,680.30
2018-09-10T09:43:24.118Z,658.80
2018-09-10T09:44:24.184Z,672.60
2018-09-10T09:45:24.206Z,639.90
2018-09-10T09:46:24.210Z,652.00
2018-09-10T09:47:24.276Z,613.30
2018-09-10T09:48:24.307Z,593.40
2018-09-10T09:49:24.392Z,611.20
2018-09-10T09:50:24.380Z,611.30
2018-09-10T09:51:24.490Z,597.10
2018-09-10T09:52:24.615Z,583.50
2018-09-10T09:53:24.507Z,585.10
2018-09-10T09:54:24.555Z,547.20
2018-09-10T09:55:24.596Z,557.40
2018-09-10T09:56:24.666Z,566.50
2018-09-10T09:57:24.719Z,550.80
2018-09-10T09:58:24.725Z,537.40
2018-09-10T09:59:24.780Z,535.40
2018-09-10T10:00:24.835Z,519.50
2018-09-10T10:01:24.863Z,510.20
2018-09-10T10:02:24.903Z,499.00
2018-09-10T10:03:24.988Z,525.10
2018-09-10T10:04:25.057Z,505.60
2018-09-10T10:05:25.022Z,511.90
2018-09-10T10:06:25.076Z,534.90
2018-09-10T10:07:25.324Z,543.50
2018-09-10T10:08:25.160Z,522.40
2018-09-10T10:09:25.209Z,542.70
2018-09-10T10:10:25.243Z,559.20
2018-09-10T10:11:25.281Z,547.50
2018-09-10T10:12:25.499Z,544.20
2018-09-10T10:13:25.354Z,564.00
2018-09-10T10:14:25.434Z,564.30
2018-09-10T10:15:25.446Z,532.60
2018-09-10T10:16:25.537Z,531.20
2018-09-10T10:17:25.704Z,540.10
2018-09-10T10:18:25.590Z,454.90
2018-09-10T10:19:25.611Z,405.40
2018-09-10T10:20:25.680Z,404.30
2018-09-10T10:21:25.716Z,424.40
2018-09-10T10:22:25.739Z,379.30
2018-09-10T10:23:25.789Z,358.40
2018-09-10T10:24:25.827Z,316.90
2018-09-10T10:25:25.901Z,361.50
2018-09-10T10:26:25.942Z,256.20
2018-09-10T10:27:26.139Z,196.70
2018-09-10T10:28:26.019Z,195.70
2018-09-10T10:29:26.070Z,229.10
2018-09-10T10:30:26.151Z,241.00
2018-09-10T10:31:26.167Z,261.90
2018-09-10T10:32:26.351Z,304.80
2018-09-10T10:33:26.291Z,448.60
2018-09-10T10:34:26.286Z,351.70
2018-09-10T10:35:26.327Z,332.70
2018-09-10T10:36:26.399Z,342.50
2018-09-10T10:37:26.419Z,359.00
2018-09-10T10:38:26.629Z,365.30
2018-09-10T10:39:26.543Z,359.90
2018-09-10T10:40:26.555Z,354.60
2018-09-10T10:41:26.613Z,391.80
2018-09-10T10:42:26.660Z,327.30
2018-09-10T10:43:26.708Z,323.30
2018-09-10T10:44:26.751Z,320.30
2018-09-10T10:45:26.801Z,359.60
2018-09-10T10:46:26.893Z,372.00
2018-09-10T10:47:26.924Z,314.80
2018-09-10T10:48:27.029Z,322.30
2018-09-10T10:49:26.975Z,281.60
2018-09-10T10:50:27.024Z,291.50
2018-09-10T10:51:27.049Z,271.40
2018-09-10T10:52:27.105Z,230.00
2018-09-10T10:53:27.312Z,214.60
2018-09-10T10:54:27.205Z,222.50
2018-09-10T10:55:27.248Z,211.40
2018-09-10T10:56:27.297Z,225.30
2018-09-10T10:57:27.327Z,194.60
2018-09-10T10:58:27.475Z,130.70
2018-09-10T10:59:27.422Z,168.00
2018-09-10T11:00:27.483Z,157.10
2018-09-10T11:01:27.520Z,152.10
2018-09-10T11:02:27.562Z,187.10
2018-09-10T11:03:27.674Z,148.70
2018-09-10T11:04:27.667Z,117.30
2018-09-10T11:05:27.723Z,160.70
2018-09-10T11:06:27.804Z,182.90
2018-09-10T11:07:27.812Z,226.70
2018-09-10T11:08:27.870Z,358.00
2018-09-10T11:09:28.028Z,301.30
2018-09-10T11:10:27.959Z,261.70
2018-09-10T11:11:28.004Z,267.00
2018-09-10T11:12:28.036Z,376.10
2018-09-10T11:13:28.107Z,325.80
2018-09-10T11:14:28.128Z,313.10
2018-09-10T11:15:28.204Z,356.90
2018-09-10T11:16:28.238Z,434.40
2018-09-10T11:17:28.282Z,404.00
2018-09-10T11:18:28.325Z,348.30
2018-09-10T11:19:28.391Z,340.10
2018-09-10T11:20:28.434Z,332.30
2018-09-10T11:21:28.471Z,410.20
2018-09-10T11:22:28.596Z,368.80
2018-09-10T11:23:28.563Z,372.60
2018-09-10T11:24:28.629Z,357.50
2018-09-10T11:25:28.674Z,361.80
2018-09-10T11:26:28.713Z,484.40
2018-09-10T11:27:28.785Z,454.20
2018-09-10T11:28:28.828Z,375.00
2018-09-10T11:29:28.875Z,490.70
2018-09-10T11:30:28.953Z,413.80
2018-09-10T11:31:28.951Z,491.80
2018-09-10T11:32:29.002Z,506.60
2018-09-10T11:33:29.102Z,384.20
2018-09-10T11:34:29.110Z,602.70
2018-09-10T11:35:29.150Z,453.60
2018-09-10T11:36:29.325Z,695.00
2018-09-10T11:37:29.296Z,523.40
2018-09-10T11:38:29.317Z,493.80
2018-09-10T11:39:29.371Z,456.00
2018-09-10T11:40:29.446Z,466.00
2018-09-10T11:41:29.442Z,779.70
2018-09-10T11:42:29.656Z,627.10
2018-09-10T11:43:29.557Z,561.30
2018-09-10T11:44:29.594Z,507.70
2018-09-10T11:45:29.660Z,647.20
2018-09-10T11:46:29.761Z,520.90
2018-09-10T11:47:29.736Z,507.50
2018-09-10T11:48:29.773Z,495.10
2018-09-10T11:49:29.839Z,511.40
2018-09-10T11:50:29.876Z,498.00
2018-09-10T11:51:29.940Z,691.10
2018-09-10T11:52:29.990Z,551.70
2018-09-10T11:53:30.043Z,662.10
2018-09-10T11:54:30.073Z,499.10
2018-09-10T11:55:30.177Z,482.50
2018-09-10T11:56:30.181Z,517.90
2018-09-10T11:57:30.214Z,481.20
2018-09-10T11:58:30.265Z,504.30
2018-09-10T11:59:30.321Z,541.10
2018-09-10T12:00:30.355Z,517.90
2018-09-10T12:01:30.448Z,567.30
2018-09-10T12:02:30.465Z,510.60
2018-09-10T12:03:30.518Z,605.60
2018-09-10T12:04:30.548Z,758.70
2018-09-10T12:05:30.626Z,469.80
2018-09-10T12:06:30.638Z,448.80
2018-09-10T12:07:30.692Z,570.40
2018-09-10T12:08:30.733Z,484.60
2018-09-10T12:09:30.804Z,500.10
2018-09-10T12:10:30.861Z,816.00
2018-09-10T12:11:30.916Z,687.90
2018-09-10T12:12:30.959Z,605.60
2018-09-10T12:13:31.012Z,594.20
2018-09-10T12:14:31.041Z,682.20
2018-09-10T12:15:31.285Z,528.10
2018-09-10T12:16:31.151Z,506.70
2018-09-10T12:17:31.197Z,654.90
2018-09-10T12:18:31.218Z,860.40
2018-09-10T12:19:31.285Z,482.70
2018-09-10T12:20:31.445Z,454.70
2018-09-10T12:21:31.430Z,503.80
2018-09-10T12:22:31.426Z,877.80
2018-09-10T12:23:31.473Z,446.40
2018-09-10T12:24:31.503Z,505.90
2018-09-10T12:25:31.574Z,625.10
2018-09-10T12:26:31.750Z,470.70
2018-09-10T12:27:31.669Z,523.20
2018-09-10T12:28:31.715Z,669.50